sensor_id;sensor_type;location;lat;lon;timestamp;P1;durP1;ratioP1;P2;durP2;ratioP2
11010;SDS011;5558;42.702;23.178;2022-12-07T00:01:19;32.87;;;22.90;;
11010;SDS011;5558;42.702;23.178;2022-12-07T00:03:48;28.10;;;20.00;;
11010;SDS011;5558;42.702;23.178;2022-12-07T00:06:16;26.07;;;19.83;;
11010;SDS011;5558;42.702;23.178;2022-12-07T00:08:44;29.07;;;20.23;;
11010;SDS011;5558;42.702;23.178;2022-12-07T00:11:13;27.43;;;19.30;;
11010;SDS011;5558;42.702;23.178;2022-12-07T00:13:41;27.33;;;19.27;;
11010;SDS011;5558;42.702;23.178;2022-12-07T00:16:09;26.27;;;18.93;;
11010;SDS011;5558;42.702;23.178;2022-12-07T00:18:39;26.73;;;19.90;;
11010;SDS011;5558;42.702;23.178;2022-12-07T00:21:06;26.67;;;18.87;;
11010;SDS011;5558;42.702;23.178;2022-12-07T00:23:34;26.00;;;19.57;;
11010;SDS011;5558;42.702;23.178;2022-12-07T00:26:05;29.23;;;20.60;;
11010;SDS011;5558;42.702;23.178;2022-12-07T00:28:33;32.13;;;22.23;;
11010;SDS011;5558;42.702;23.178;2022-12-07T00:31:01;34.07;;;22.47;;
11010;SDS011;5558;42.702;23.178;2022-12-07T00:33:28;31.50;;;21.43;;
11010;SDS011;5558;42.702;23.178;2022-12-07T00:35:57;30.93;;;21.70;;
11010;SDS011;5558;42.702;23.178;2022-12-07T00:38:24;32.73;;;21.70;;
11010;SDS011;5558;42.702;23.178;2022-12-07T00:40:54;31.63;;;20.93;;
11010;SDS011;5558;42.702;23.178;2022-12-07T00:43:25;32.83;;;22.50;;
11010;SDS011;5558;42.702;23.178;2022-12-07T00:45:52;31.70;;;22.10;;
11010;SDS011;5558;42.702;23.178;2022-12-07T00:48:19;32.20;;;22.13;;
11010;SDS011;5558;42.702;23.178;2022-12-07T00:50:46;30.43;;;21.47;;
11010;SDS011;5558;42.702;23.178;2022-12-07T00:53:15;29.63;;;21.40;;
11010;SDS011;5558;42.702;23.178;2022-12-07T00:55:42;31.37;;;21.93;;
11010;SDS011;5558;42.702;23.178;2022-12-07T00:58:09;27.53;;;20.87;;
11010;SDS011;5558;42.702;23.178;2022-12-07T01:00:37;30.00;;;20.97;;
11010;SDS011;5558;42.702;23.178;2022-12-07T01:03:05;29.60;;;20.70;;
11010;SDS011;5558;42.702;23.178;2022-12-07T01:05:33;28.73;;;20.67;;
11010;SDS011;5558;42.702;23.178;2022-12-07T01:08:01;32.77;;;22.67;;
11010;SDS011;5558;42.702;23.178;2022-12-07T01:10:29;28.60;;;21.43;;
11010;SDS011;5558;42.702;23.178;2022-12-07T01:12:56;31.20;;;20.67;;
11010;SDS011;5558;42.702;23.178;2022-12-07T01:15:23;30.60;;;21.83;;
11010;SDS011;5558;42.702;23.178;2022-12-07T01:17:50;31.13;;;21.97;;
11010;SDS011;5558;42.702;23.178;2022-12-07T01:20:17;30.93;;;21.20;;
11010;SDS011;5558;42.702;23.178;2022-12-07T01:22:44;27.43;;;19.83;;
11010;SDS011;5558;42.702;23.178;2022-12-07T01:25:11;28.63;;;19.83;;
11010;SDS011;5558;42.702;23.178;2022-12-07T01:27:39;31.27;;;20.67;;
11010;SDS011;5558;42.702;23.178;2022-12-07T01:30:06;31.10;;;20.97;;
11010;SDS011;5558;42.702;23.178;2022-12-07T01:32:34;30.43;;;20.40;;
11010;SDS011;5558;42.702;23.178;2022-12-07T01:35:01;33.07;;;22.03;;
11010;SDS011;5558;42.702;23.178;2022-12-07T01:37:27;32.33;;;21.10;;
11010;SDS011;5558;42.702;23.178;2022-12-07T01:39:54;29.87;;;20.57;;
11010;SDS011;5558;42.702;23.178;2022-12-07T01:42:21;31.23;;;21.30;;
11010;SDS011;5558;42.702;23.178;2022-12-07T01:47:57;30.40;;;20.13;;
11010;SDS011;5558;42.702;23.178;2022-12-07T01:50:25;28.23;;;19.60;;
11010;SDS011;5558;42.702;23.178;2022-12-07T01:52:56;31.43;;;21.20;;
11010;SDS011;5558;42.702;23.178;2022-12-07T01:55:27;29.17;;;19.73;;
11010;SDS011;5558;42.702;23.178;2022-12-07T01:57:55;28.30;;;19.77;;
11010;SDS011;5558;42.702;23.178;2022-12-07T02:00:23;27.03;;;18.80;;
11010;SDS011;5558;42.702;23.178;2022-12-07T02:02:51;26.17;;;18.60;;
11010;SDS011;5558;42.702;23.178;2022-12-07T02:05:23;27.20;;;18.40;;
11010;SDS011;5558;42.702;23.178;2022-12-07T02:07:51;27.17;;;18.70;;
11010;SDS011;5558;42.702;23.178;2022-12-07T02:10:22;29.03;;;19.27;;
11010;SDS011;5558;42.702;23.178;2022-12-07T02:12:51;26.30;;;18.33;;
11010;SDS011;5558;42.702;23.178;2022-12-07T02:15:20;25.77;;;18.30;;
11010;SDS011;5558;42.702;23.178;2022-12-07T02:17:53;27.03;;;19.30;;
11010;SDS011;5558;42.702;23.178;2022-12-07T02:20:31;25.60;;;18.07;;
11010;SDS011;5558;42.702;23.178;2022-12-07T02:23:09;25.87;;;17.83;;
11010;SDS011;5558;42.702;23.178;2022-12-07T02:26:02;25.47;;;17.87;;
11010;SDS011;5558;42.702;23.178;2022-12-07T02:29:00;23.13;;;16.70;;
11010;SDS011;5558;42.702;23.178;2022-12-07T02:31:36;22.80;;;16.53;;
11010;SDS011;5558;42.702;23.178;2022-12-07T02:34:08;23.17;;;17.00;;
11010;SDS011;5558;42.702;23.178;2022-12-07T02:36:39;22.00;;;16.70;;
11010;SDS011;5558;42.702;23.178;2022-12-07T02:39:15;22.63;;;16.57;;
11010;SDS011;5558;42.702;23.178;2022-12-07T02:41:46;23.07;;;16.40;;
11010;SDS011;5558;42.702;23.178;2022-12-07T02:44:17;25.70;;;17.50;;
11010;SDS011;5558;42.702;23.178;2022-12-07T02:46:49;23.60;;;17.40;;
11010;SDS011;5558;42.702;23.178;2022-12-07T02:49:18;23.97;;;16.07;;
11010;SDS011;5558;42.702;23.178;2022-12-07T02:51:48;21.07;;;15.57;;
11010;SDS011;5558;42.702;23.178;2022-12-07T02:54:16;24.00;;;16.23;;
11010;SDS011;5558;42.702;23.178;2022-12-07T02:56:46;20.77;;;15.53;;
11010;SDS011;5558;42.702;23.178;2022-12-07T02:59:20;21.97;;;16.13;;
11010;SDS011;5558;42.702;23.178;2022-12-07T03:01:56;20.93;;;15.57;;
11010;SDS011;5558;42.702;23.178;2022-12-07T03:04:33;25.47;;;18.43;;
11010;SDS011;5558;42.702;23.178;2022-12-07T03:07:14;26.50;;;19.37;;
11010;SDS011;5558;42.702;23.178;2022-12-07T03:09:49;27.70;;;20.30;;
11010;SDS011;5558;42.702;23.178;2022-12-07T03:12:22;24.93;;;18.13;;
11010;SDS011;5558;42.702;23.178;2022-12-07T03:15:02;22.17;;;17.03;;
11010;SDS011;5558;42.702;23.178;2022-12-07T03:17:32;27.03;;;18.03;;
11010;SDS011;5558;42.702;23.178;2022-12-07T03:20:04;21.57;;;16.20;;
11010;SDS011;5558;42.702;23.178;2022-12-07T03:22:34;20.83;;;16.23;;
11010;SDS011;5558;42.702;23.178;2022-12-07T03:25:05;19.77;;;15.10;;
11010;SDS011;5558;42.702;23.178;2022-12-07T03:27:35;22.93;;;15.93;;
11010;SDS011;5558;42.702;23.178;2022-12-07T03:30:09;22.53;;;16.10;;
11010;SDS011;5558;42.702;23.178;2022-12-07T03:32:39;20.13;;;15.80;;
11010;SDS011;5558;42.702;23.178;2022-12-07T03:35:12;20.60;;;15.40;;
11010;SDS011;5558;42.702;23.178;2022-12-07T03:37:45;22.83;;;16.63;;
11010;SDS011;5558;42.702;23.178;2022-12-07T03:40:16;22.03;;;16.80;;
11010;SDS011;5558;42.702;23.178;2022-12-07T03:42:49;21.37;;;15.60;;
11010;SDS011;5558;42.702;23.178;2022-12-07T03:45:18;28.60;;;20.63;;
11010;SDS011;5558;42.702;23.178;2022-12-07T03:47:50;23.90;;;17.30;;
11010;SDS011;5558;42.702;23.178;2022-12-07T03:50:28;25.50;;;17.80;;
11010;SDS011;5558;42.702;23.178;2022-12-07T03:52:58;23.80;;;17.20;;
11010;SDS011;5558;42.702;23.178;2022-12-07T03:55:31;21.77;;;16.33;;
11010;SDS011;5558;42.702;23.178;2022-12-07T03:58:02;21.93;;;16.20;;
11010;SDS011;5558;42.702;23.178;2022-12-07T04:00:33;23.97;;;17.10;;
11010;SDS011;5558;42.702;23.178;2022-12-07T04:03:00;21.07;;;16.23;;
11010;SDS011;5558;42.702;23.178;2022-12-07T04:05:27;22.87;;;16.23;;
11010;SDS011;5558;42.702;23.178;2022-12-07T04:07:54;21.97;;;15.77;;
11010;SDS011;5558;42.702;23.178;2022-12-07T04:10:20;22.20;;;16.43;;
11010;SDS011;5558;42.702;23.178;2022-12-07T04:12:47;21.77;;;16.67;;
11010;SDS011;5558;42.702;23.178;2022-12-07T04:15:14;28.80;;;22.00;;
11010;SDS011;5558;42.702;23.178;2022-12-07T04:17:42;38.67;;;26.63;;
11010;SDS011;5558;42.702;23.178;2022-12-07T04:20:10;31.83;;;22.93;;
11010;SDS011;5558;42.702;23.178;2022-12-07T04:22:37;114.50;;;48.63;;
11010;SDS011;5558;42.702;23.178;2022-12-07T04:25:05;32.77;;;21.57;;
11010;SDS011;5558;42.702;23.178;2022-12-07T04:27:32;26.00;;;18.57;;
11010;SDS011;5558;42.702;23.178;2022-12-07T04:29:59;27.93;;;18.97;;
11010;SDS011;5558;42.702;23.178;2022-12-07T04:32:26;28.17;;;19.27;;
11010;SDS011;5558;42.702;23.178;2022-12-07T04:34:54;25.53;;;18.30;;
11010;SDS011;5558;42.702;23.178;2022-12-07T04:37:21;23.13;;;16.87;;
11010;SDS011;5558;42.702;23.178;2022-12-07T04:39:47;24.03;;;17.03;;
11010;SDS011;5558;42.702;23.178;2022-12-07T04:42:14;23.93;;;17.07;;
11010;SDS011;5558;42.702;23.178;2022-12-07T04:44:41;23.43;;;16.60;;
11010;SDS011;5558;42.702;23.178;2022-12-07T04:47:08;26.00;;;17.43;;
11010;SDS011;5558;42.702;23.178;2022-12-07T04:49:34;24.33;;;17.67;;
11010;SDS011;5558;42.702;23.178;2022-12-07T04:52:03;28.80;;;20.73;;
11010;SDS011;5558;42.702;23.178;2022-12-07T04:54:30;25.67;;;19.13;;
11010;SDS011;5558;42.702;23.178;2022-12-07T04:56:56;27.83;;;19.43;;
11010;SDS011;5558;42.702;23.178;2022-12-07T04:59:23;27.13;;;19.07;;
11010;SDS011;5558;42.702;23.178;2022-12-07T05:01:50;26.20;;;18.57;;
11010;SDS011;5558;42.702;23.178;2022-12-07T05:04:17;26.93;;;19.20;;
11010;SDS011;5558;42.702;23.178;2022-12-07T05:06:43;26.47;;;18.80;;
11010;SDS011;5558;42.702;23.178;2022-12-07T05:09:12;24.50;;;17.53;;
11010;SDS011;5558;42.702;23.178;2022-12-07T05:11:38;26.97;;;18.40;;
11010;SDS011;5558;42.702;23.178;2022-12-07T05:14:06;24.20;;;18.10;;
11010;SDS011;5558;42.702;23.178;2022-12-07T05:16:38;24.27;;;16.70;;
11010;SDS011;5558;42.702;23.178;2022-12-07T05:19:05;23.40;;;17.23;;
11010;SDS011;5558;42.702;23.178;2022-12-07T05:21:32;23.10;;;16.87;;
11010;SDS011;5558;42.702;23.178;2022-12-07T05:23:59;23.43;;;17.10;;
11010;SDS011;5558;42.702;23.178;2022-12-07T05:26:27;23.77;;;17.37;;
11010;SDS011;5558;42.702;23.178;2022-12-07T05:28:55;24.17;;;17.27;;
11010;SDS011;5558;42.702;23.178;2022-12-07T05:31:23;27.10;;;18.70;;
11010;SDS011;5558;42.702;23.178;2022-12-07T05:33:51;23.77;;;17.07;;
11010;SDS011;5558;42.702;23.178;2022-12-07T05:36:18;23.17;;;16.23;;
11010;SDS011;5558;42.702;23.178;2022-12-07T05:38:45;24.87;;;17.53;;
11010;SDS011;5558;42.702;23.178;2022-12-07T05:41:12;23.57;;;15.70;;
11010;SDS011;5558;42.702;23.178;2022-12-07T05:43:56;21.70;;;16.03;;
11010;SDS011;5558;42.702;23.178;2022-12-07T05:46:23;22.13;;;16.57;;
11010;SDS011;5558;42.702;23.178;2022-12-07T05:48:49;26.33;;;19.83;;
11010;SDS011;5558;42.702;23.178;2022-12-07T05:51:16;89.47;;;51.67;;
11010;SDS011;5558;42.702;23.178;2022-12-07T05:53:43;61.73;;;41.00;;
11010;SDS011;5558;42.702;23.178;2022-12-07T05:56:10;49.33;;;36.93;;
11010;SDS011;5558;42.702;23.178;2022-12-07T05:58:37;45.37;;;32.10;;
11010;SDS011;5558;42.702;23.178;2022-12-07T06:01:22;49.00;;;33.43;;
11010;SDS011;5558;42.702;23.178;2022-12-07T06:03:49;52.47;;;34.70;;
11010;SDS011;5558;42.702;23.178;2022-12-07T06:06:16;40.50;;;27.87;;
11010;SDS011;5558;42.702;23.178;2022-12-07T06:08:42;30.10;;;21.27;;
11010;SDS011;5558;42.702;23.178;2022-12-07T06:11:09;30.90;;;21.33;;
11010;SDS011;5558;42.702;23.178;2022-12-07T06:13:53;31.37;;;21.03;;
11010;SDS011;5558;42.702;23.178;2022-12-07T06:16:20;33.57;;;23.23;;
11010;SDS011;5558;42.702;23.178;2022-12-07T06:18:48;30.03;;;20.67;;
11010;SDS011;5558;42.702;23.178;2022-12-07T06:21:14;32.93;;;22.07;;
11010;SDS011;5558;42.702;23.178;2022-12-07T06:23:41;31.20;;;21.73;;
11010;SDS011;5558;42.702;23.178;2022-12-07T06:26:08;32.60;;;23.37;;
11010;SDS011;5558;42.702;23.178;2022-12-07T06:28:34;30.77;;;21.77;;
11010;SDS011;5558;42.702;23.178;2022-12-07T06:31:02;29.90;;;20.93;;
11010;SDS011;5558;42.702;23.178;2022-12-07T06:33:29;30.57;;;20.63;;
11010;SDS011;5558;42.702;23.178;2022-12-07T06:35:57;30.30;;;21.23;;
11010;SDS011;5558;42.702;23.178;2022-12-07T06:38:25;38.07;;;24.97;;
11010;SDS011;5558;42.702;23.178;2022-12-07T06:40:51;30.10;;;21.83;;
11010;SDS011;5558;42.702;23.178;2022-12-07T06:43:18;29.37;;;20.90;;
11010;SDS011;5558;42.702;23.178;2022-12-07T06:45:45;28.00;;;20.30;;
11010;SDS011;5558;42.702;23.178;2022-12-07T06:48:11;29.53;;;20.47;;
11010;SDS011;5558;42.702;23.178;2022-12-07T06:50:39;32.07;;;21.30;;
11010;SDS011;5558;42.702;23.178;2022-12-07T06:53:07;30.43;;;20.23;;
11010;SDS011;5558;42.702;23.178;2022-12-07T06:55:35;33.87;;;22.03;;
11010;SDS011;5558;42.702;23.178;2022-12-07T06:58:02;29.90;;;20.13;;
11010;SDS011;5558;42.702;23.178;2022-12-07T07:00:29;31.43;;;20.07;;
11010;SDS011;5558;42.702;23.178;2022-12-07T07:02:55;29.83;;;19.07;;
11010;SDS011;5558;42.702;23.178;2022-12-07T07:05:22;28.87;;;19.00;;
11010;SDS011;5558;42.702;23.178;2022-12-07T07:07:49;31.27;;;20.73;;
11010;SDS011;5558;42.702;23.178;2022-12-07T07:10:18;29.70;;;20.53;;
11010;SDS011;5558;42.702;23.178;2022-12-07T07:12:44;29.53;;;20.73;;
11010;SDS011;5558;42.702;23.178;2022-12-07T07:15:11;31.43;;;21.50;;
11010;SDS011;5558;42.702;23.178;2022-12-07T07:17:38;33.43;;;22.93;;
11010;SDS011;5558;42.702;23.178;2022-12-07T07:20:05;32.70;;;22.30;;
11010;SDS011;5558;42.702;23.178;2022-12-07T07:22:32;36.87;;;22.73;;
11010;SDS011;5558;42.702;23.178;2022-12-07T07:24:59;34.73;;;23.30;;
11010;SDS011;5558;42.702;23.178;2022-12-07T07:27:27;32.80;;;22.20;;
11010;SDS011;5558;42.702;23.178;2022-12-07T07:29:54;33.37;;;22.63;;
11010;SDS011;5558;42.702;23.178;2022-12-07T07:32:20;36.23;;;23.67;;
11010;SDS011;5558;42.702;23.178;2022-12-07T07:34:47;36.47;;;23.17;;
11010;SDS011;5558;42.702;23.178;2022-12-07T07:37:14;35.93;;;22.77;;
11010;SDS011;5558;42.702;23.178;2022-12-07T07:39:41;32.87;;;22.27;;
11010;SDS011;5558;42.702;23.178;2022-12-07T07:42:07;34.23;;;22.20;;
11010;SDS011;5558;42.702;23.178;2022-12-07T07:44:35;32.63;;;21.47;;
11010;SDS011;5558;42.702;23.178;2022-12-07T07:47:02;32.37;;;21.10;;
11010;SDS011;5558;42.702;23.178;2022-12-07T07:49:29;29.23;;;20.60;;
11010;SDS011;5558;42.702;23.178;2022-12-07T07:51:56;31.87;;;21.37;;
11010;SDS011;5558;42.702;23.178;2022-12-07T07:54:23;32.30;;;21.90;;
11010;SDS011;5558;42.702;23.178;2022-12-07T07:56:49;34.03;;;22.97;;
11010;SDS011;5558;42.702;23.178;2022-12-07T07:59:16;33.27;;;21.83;;
11010;SDS011;5558;42.702;23.178;2022-12-07T08:01:44;30.53;;;20.83;;
11010;SDS011;5558;42.702;23.178;2022-12-07T08:04:11;31.20;;;20.73;;
11010;SDS011;5558;42.702;23.178;2022-12-07T08:06:37;32.00;;;21.03;;
11010;SDS011;5558;42.702;23.178;2022-12-07T08:09:04;31.73;;;21.30;;
11010;SDS011;5558;42.702;23.178;2022-12-07T08:11:31;31.40;;;21.67;;
11010;SDS011;5558;42.702;23.178;2022-12-07T08:13:58;33.60;;;21.97;;
11010;SDS011;5558;42.702;23.178;2022-12-07T08:16:24;31.47;;;21.67;;
11010;SDS011;5558;42.702;23.178;2022-12-07T08:18:53;32.17;;;21.67;;
11010;SDS011;5558;42.702;23.178;2022-12-07T08:21:19;29.50;;;19.80;;
11010;SDS011;5558;42.702;23.178;2022-12-07T08:23:46;31.67;;;21.33;;
11010;SDS011;5558;42.702;23.178;2022-12-07T08:26:13;28.60;;;19.67;;
11010;SDS011;5558;42.702;23.178;2022-12-07T08:28:41;29.63;;;20.70;;
11010;SDS011;5558;42.702;23.178;2022-12-07T08:31:11;28.70;;;19.67;;
11010;SDS011;5558;42.702;23.178;2022-12-07T08:33:39;28.77;;;19.10;;
11010;SDS011;5558;42.702;23.178;2022-12-07T08:36:09;28.07;;;18.40;;
11010;SDS011;5558;42.702;23.178;2022-12-07T08:38:38;26.73;;;18.27;;
11010;SDS011;5558;42.702;23.178;2022-12-07T08:41:07;27.00;;;18.33;;
11010;SDS011;5558;42.702;23.178;2022-12-07T08:43:34;31.03;;;19.23;;
11010;SDS011;5558;42.702;23.178;2022-12-07T08:46:04;26.73;;;18.87;;
11010;SDS011;5558;42.702;23.178;2022-12-07T08:48:35;24.33;;;17.43;;
11010;SDS011;5558;42.702;23.178;2022-12-07T08:51:05;24.33;;;17.00;;
11010;SDS011;5558;42.702;23.178;2022-12-07T08:53:33;23.97;;;16.83;;
11010;SDS011;5558;42.702;23.178;2022-12-07T08:56:02;23.33;;;17.00;;
11010;SDS011;5558;42.702;23.178;2022-12-07T08:58:31;24.57;;;18.30;;
11010;SDS011;5558;42.702;23.178;2022-12-07T09:00:58;25.43;;;18.03;;
11010;SDS011;5558;42.702;23.178;2022-12-07T09:03:25;26.10;;;18.37;;
11010;SDS011;5558;42.702;23.178;2022-12-07T09:05:52;26.97;;;19.23;;
11010;SDS011;5558;42.702;23.178;2022-12-07T09:08:19;30.10;;;19.73;;
11010;SDS011;5558;42.702;23.178;2022-12-07T09:10:49;29.50;;;21.00;;
11010;SDS011;5558;42.702;23.178;2022-12-07T09:13:16;34.83;;;22.80;;
11010;SDS011;5558;42.702;23.178;2022-12-07T09:15:42;34.60;;;24.73;;
11010;SDS011;5558;42.702;23.178;2022-12-07T09:18:09;36.53;;;25.17;;
11010;SDS011;5558;42.702;23.178;2022-12-07T09:20:36;36.63;;;26.20;;
11010;SDS011;5558;42.702;23.178;2022-12-07T09:23:04;37.50;;;26.60;;
11010;SDS011;5558;42.702;23.178;2022-12-07T09:25:32;37.47;;;25.63;;
11010;SDS011;5558;42.702;23.178;2022-12-07T09:28:00;37.67;;;26.20;;
11010;SDS011;5558;42.702;23.178;2022-12-07T09:30:27;36.70;;;25.03;;
11010;SDS011;5558;42.702;23.178;2022-12-07T09:32:54;37.83;;;26.60;;
11010;SDS011;5558;42.702;23.178;2022-12-07T09:35:22;34.63;;;25.33;;
11010;SDS011;5558;42.702;23.178;2022-12-07T09:37:49;37.77;;;26.57;;
11010;SDS011;5558;42.702;23.178;2022-12-07T09:40:16;35.53;;;25.90;;
11010;SDS011;5558;42.702;23.178;2022-12-07T09:42:47;39.17;;;26.90;;
11010;SDS011;5558;42.702;23.178;2022-12-07T09:45:18;35.30;;;25.70;;
11010;SDS011;5558;42.702;23.178;2022-12-07T09:47:48;36.63;;;26.77;;
11010;SDS011;5558;42.702;23.178;2022-12-07T09:50:16;39.37;;;28.43;;
11010;SDS011;5558;42.702;23.178;2022-12-07T09:52:45;37.43;;;27.83;;
11010;SDS011;5558;42.702;23.178;2022-12-07T09:55:14;37.63;;;27.10;;
11010;SDS011;5558;42.702;23.178;2022-12-07T09:57:43;40.00;;;29.00;;
11010;SDS011;5558;42.702;23.178;2022-12-07T10:00:11;40.00;;;29.47;;
11010;SDS011;5558;42.702;23.178;2022-12-07T10:02:42;40.00;;;29.10;;
11010;SDS011;5558;42.702;23.178;2022-12-07T10:05:12;42.70;;;31.67;;
11010;SDS011;5558;42.702;23.178;2022-12-07T10:07:41;41.90;;;30.80;;
11010;SDS011;5558;42.702;23.178;2022-12-07T10:10:12;43.87;;;30.83;;
11010;SDS011;5558;42.702;23.178;2022-12-07T10:12:54;46.73;;;33.70;;
11010;SDS011;5558;42.702;23.178;2022-12-07T10:15:23;45.00;;;32.30;;
11010;SDS011;5558;42.702;23.178;2022-12-07T10:18:17;40.47;;;29.97;;
11010;SDS011;5558;42.702;23.178;2022-12-07T10:20:47;37.97;;;28.83;;
11010;SDS011;5558;42.702;23.178;2022-12-07T10:23:14;38.37;;;25.70;;
11010;SDS011;5558;42.702;23.178;2022-12-07T10:25:43;35.17;;;24.53;;
11010;SDS011;5558;42.702;23.178;2022-12-07T10:28:12;34.70;;;24.60;;
11010;SDS011;5558;42.702;23.178;2022-12-07T10:33:48;37.33;;;26.30;;
11010;SDS011;5558;42.702;23.178;2022-12-07T10:36:17;33.27;;;24.10;;
11010;SDS011;5558;42.702;23.178;2022-12-07T10:38:47;34.00;;;22.40;;
11010;SDS011;5558;42.702;23.178;2022-12-07T10:41:15;30.40;;;22.67;;
11010;SDS011;5558;42.702;23.178;2022-12-07T10:43:49;31.60;;;22.77;;
11010;SDS011;5558;42.702;23.178;2022-12-07T10:46:25;30.47;;;21.60;;
11010;SDS011;5558;42.702;23.178;2022-12-07T10:49:01;31.93;;;22.83;;
11010;SDS011;5558;42.702;23.178;2022-12-07T10:51:38;34.27;;;24.90;;
11010;SDS011;5558;42.702;23.178;2022-12-07T10:54:12;33.97;;;23.97;;
11010;SDS011;5558;42.702;23.178;2022-12-07T10:57:06;32.53;;;22.80;;
11010;SDS011;5558;42.702;23.178;2022-12-07T10:59:48;32.53;;;24.07;;
11010;SDS011;5558;42.702;23.178;2022-12-07T11:02:25;33.53;;;24.37;;
11010;SDS011;5558;42.702;23.178;2022-12-07T11:05:09;35.97;;;25.67;;
11010;SDS011;5558;42.702;23.178;2022-12-07T11:07:47;33.50;;;24.50;;
11010;SDS011;5558;42.702;23.178;2022-12-07T11:10:28;28.90;;;20.00;;
11010;SDS011;5558;42.702;23.178;2022-12-07T11:13:11;27.70;;;20.00;;
11010;SDS011;5558;42.702;23.178;2022-12-07T11:15:53;22.77;;;17.07;;
11010;SDS011;5558;42.702;23.178;2022-12-07T11:18:39;24.73;;;17.63;;
11010;SDS011;5558;42.702;23.178;2022-12-07T11:21:17;27.57;;;18.20;;
11010;SDS011;5558;42.702;23.178;2022-12-07T11:23:52;24.83;;;18.83;;
11010;SDS011;5558;42.702;23.178;2022-12-07T11:26:31;27.47;;;19.47;;
11010;SDS011;5558;42.702;23.178;2022-12-07T11:29:12;25.60;;;18.67;;
11010;SDS011;5558;42.702;23.178;2022-12-07T11:31:52;26.53;;;18.63;;
11010;SDS011;5558;42.702;23.178;2022-12-07T11:34:31;27.93;;;19.23;;
11010;SDS011;5558;42.702;23.178;2022-12-07T11:37:07;26.77;;;18.37;;
11010;SDS011;5558;42.702;23.178;2022-12-07T11:39:39;28.40;;;20.43;;
11010;SDS011;5558;42.702;23.178;2022-12-07T11:42:13;31.40;;;21.83;;
11010;SDS011;5558;42.702;23.178;2022-12-07T11:44:46;30.40;;;22.33;;
11010;SDS011;5558;42.702;23.178;2022-12-07T11:47:20;28.83;;;20.73;;
11010;SDS011;5558;42.702;23.178;2022-12-07T11:49:53;29.20;;;21.10;;
11010;SDS011;5558;42.702;23.178;2022-12-07T11:52:27;31.27;;;21.70;;
11010;SDS011;5558;42.702;23.178;2022-12-07T11:55:01;29.20;;;21.30;;
11010;SDS011;5558;42.702;23.178;2022-12-07T11:57:32;28.93;;;20.97;;
11010;SDS011;5558;42.702;23.178;2022-12-07T12:00:06;29.43;;;21.13;;
11010;SDS011;5558;42.702;23.178;2022-12-07T12:02:41;30.40;;;20.37;;
11010;SDS011;5558;42.702;23.178;2022-12-07T12:05:16;28.30;;;20.97;;
11010;SDS011;5558;42.702;23.178;2022-12-07T12:07:46;28.77;;;20.23;;
11010;SDS011;5558;42.702;23.178;2022-12-07T12:10:21;33.33;;;21.47;;
11010;SDS011;5558;42.702;23.178;2022-12-07T12:15:59;30.93;;;20.70;;
11010;SDS011;5558;42.702;23.178;2022-12-07T12:18:39;28.57;;;20.90;;
11010;SDS011;5558;42.702;23.178;2022-12-07T12:21:18;27.73;;;19.47;;
11010;SDS011;5558;42.702;23.178;2022-12-07T12:23:51;29.43;;;21.33;;
11010;SDS011;5558;42.702;23.178;2022-12-07T12:26:24;30.40;;;21.27;;
11010;SDS011;5558;42.702;23.178;2022-12-07T12:28:54;32.20;;;22.00;;
11010;SDS011;5558;42.702;23.178;2022-12-07T12:31:32;30.30;;;22.03;;
11010;SDS011;5558;42.702;23.178;2022-12-07T12:34:03;30.63;;;22.20;;
11010;SDS011;5558;42.702;23.178;2022-12-07T12:36:44;27.83;;;18.73;;
11010;SDS011;5558;42.702;23.178;2022-12-07T12:39:13;27.70;;;17.50;;
11010;SDS011;5558;42.702;23.178;2022-12-07T12:41:51;24.93;;;16.37;;
11010;SDS011;5558;42.702;23.178;2022-12-07T12:44:39;22.07;;;16.50;;
11010;SDS011;5558;42.702;23.178;2022-12-07T12:50:23;32.27;;;22.10;;
11010;SDS011;5558;42.702;23.178;2022-12-07T12:52:58;33.40;;;23.07;;
11010;SDS011;5558;42.702;23.178;2022-12-07T12:58:44;32.70;;;23.27;;
11010;SDS011;5558;42.702;23.178;2022-12-07T13:01:32;30.57;;;22.60;;
11010;SDS011;5558;42.702;23.178;2022-12-07T13:07:12;32.10;;;21.00;;
11010;SDS011;5558;42.702;23.178;2022-12-07T13:09:59;31.87;;;21.57;;
11010;SDS011;5558;42.702;23.178;2022-12-07T13:12:29;33.63;;;22.60;;
11010;SDS011;5558;42.702;23.178;2022-12-07T13:14:57;30.60;;;22.20;;
11010;SDS011;5558;42.702;23.178;2022-12-07T13:20:48;32.27;;;22.10;;
11010;SDS011;5558;42.702;23.178;2022-12-07T13:23:18;30.40;;;20.87;;
11010;SDS011;5558;42.702;23.178;2022-12-07T13:25:51;26.83;;;18.10;;
11010;SDS011;5558;42.702;23.178;2022-12-07T13:28:23;24.10;;;16.80;;
11010;SDS011;5558;42.702;23.178;2022-12-07T13:31:13;22.03;;;16.07;;
11010;SDS011;5558;42.702;23.178;2022-12-07T13:33:45;24.20;;;17.03;;
11010;SDS011;5558;42.702;23.178;2022-12-07T13:36:20;26.10;;;17.10;;
11010;SDS011;5558;42.702;23.178;2022-12-07T13:38:49;23.93;;;17.17;;
11010;SDS011;5558;42.702;23.178;2022-12-07T13:41:21;23.20;;;16.17;;
11010;SDS011;5558;42.702;23.178;2022-12-07T13:43:52;25.20;;;17.03;;
11010;SDS011;5558;42.702;23.178;2022-12-07T13:46:25;24.47;;;16.47;;
11010;SDS011;5558;42.702;23.178;2022-12-07T13:48:58;23.10;;;17.03;;
11010;SDS011;5558;42.702;23.178;2022-12-07T13:51:25;25.33;;;18.20;;
11010;SDS011;5558;42.702;23.178;2022-12-07T13:53:54;24.97;;;17.30;;
11010;SDS011;5558;42.702;23.178;2022-12-07T13:56:26;25.00;;;16.97;;
11010;SDS011;5558;42.702;23.178;2022-12-07T13:58:59;24.77;;;18.00;;
11010;SDS011;5558;42.702;23.178;2022-12-07T14:01:26;23.37;;;16.63;;
11010;SDS011;5558;42.702;23.178;2022-12-07T14:03:53;22.60;;;17.07;;
11010;SDS011;5558;42.702;23.178;2022-12-07T14:06:22;23.73;;;15.53;;
11010;SDS011;5558;42.702;23.178;2022-12-07T14:09:06;18.97;;;14.03;;
11010;SDS011;5558;42.702;23.178;2022-12-07T14:11:42;20.57;;;13.73;;
11010;SDS011;5558;42.702;23.178;2022-12-07T14:14:11;21.40;;;13.50;;
11010;SDS011;5558;42.702;23.178;2022-12-07T14:16:43;20.57;;;14.80;;
11010;SDS011;5558;42.702;23.178;2022-12-07T14:22:08;19.43;;;13.90;;
11010;SDS011;5558;42.702;23.178;2022-12-07T14:24:44;17.77;;;13.07;;
11010;SDS011;5558;42.702;23.178;2022-12-07T14:27:16;19.27;;;13.37;;
11010;SDS011;5558;42.702;23.178;2022-12-07T14:29:46;20.33;;;15.27;;
11010;SDS011;5558;42.702;23.178;2022-12-07T14:32:23;20.33;;;14.97;;
11010;SDS011;5558;42.702;23.178;2022-12-07T14:34:58;20.60;;;13.57;;
11010;SDS011;5558;42.702;23.178;2022-12-07T14:37:26;18.70;;;13.33;;
11010;SDS011;5558;42.702;23.178;2022-12-07T14:39:54;19.83;;;13.63;;
11010;SDS011;5558;42.702;23.178;2022-12-07T14:42:21;18.70;;;13.80;;
11010;SDS011;5558;42.702;23.178;2022-12-07T14:44:52;17.10;;;13.10;;
11010;SDS011;5558;42.702;23.178;2022-12-07T14:47:18;18.37;;;13.60;;
11010;SDS011;5558;42.702;23.178;2022-12-07T14:49:45;20.97;;;14.07;;
11010;SDS011;5558;42.702;23.178;2022-12-07T14:52:13;21.60;;;14.97;;
11010;SDS011;5558;42.702;23.178;2022-12-07T14:54:43;32.40;;;22.90;;
11010;SDS011;5558;42.702;23.178;2022-12-07T14:57:10;41.83;;;27.27;;
11010;SDS011;5558;42.702;23.178;2022-12-07T14:59:37;31.10;;;20.80;;
11010;SDS011;5558;42.702;23.178;2022-12-07T15:02:05;33.13;;;23.07;;
11010;SDS011;5558;42.702;23.178;2022-12-07T15:04:35;24.40;;;17.77;;